Startpagina
METAR-TAF:

METAR-TAF

Vliegvelden :

Yap, Yap Island, Micronesië

breedte: 09-29N, lengte: 138-05E, hoogte: 28 m

Actueel weer

Dit bericht is 14 minuten geleden gemaakt, om 00:51 UTC
Wind 11 kt uit het noordoosten
Temperatuur 30°C
Vochtigheid 75%
Druk 1011 hPa
Zicht: 19.3 km
Verspreide wolken op 1700 ft
Gebroken wolken op 30000 ft

METAR: PTYA 190051Z 04011KT 12SM SCT017 BKN300 30/25 A2984 RMK SLP107 T03030253

Tijdstip: 11:05 (01:05 UTC)

Verwachting

Dit bericht is 1 uur en het 36 minuten geleden gemaakt, om 23:29 UTC
Verwachting geldig van 19 om 00 UTC tot 19 om 24 UTC
Wind 9 kt uit het noordoosten
Zicht: 10 km
Verspreide wolken op 1600 ft
Verspreide wolken op 5000 ft
buien in de omgeving

TAF: PTYA 182329Z 1900/1924 05009KT P6SM VCSH SCT016 SCT050

Waarnemingen en weersverwachtingen van meer dan 4000 vliegvelden (METAR en TAF).

De beschikbare stations zijn de gele en rode punten op de kaart.

Ga met uw muis naar het station om de naam te zien.

Klik dan om waarnemingen en weersverwachtingen te zien.

kaart wijzigen: klik op de groene knoppen met een zwart kruis om in te zoomen, op de groene knop met een streepje om uit te zoomen of op de groene pijlen voor aangrenzende kaarten.


METAR-TAF: